Time;durP1;ratioP1;P1;durP2;ratioP2;P2;SDS_P1;SDS_P2;PMS_P1;PMS_P2;Temp;Humidity;BMP_temperature;BMP_pressure;BME280_temperature;BME280_humidity;BME280_pressure;Samples;Min_cycle;Max_cycle;Signal;HPM_P1;HPM_P2
2022/12/20 00:00:04;;;;;;;8.90;6.80;;;1.80;99.90;;;;;;6240870;23;20810;-77
2022/12/20 00:02:31;;;;;;;13.50;7.77;;;1.80;99.90;;;;;;6240759;23;20410;-74
2022/12/20 00:04:58;;;;;;;9.77;7.90;;;1.80;99.90;;;;;;6241213;23;20799;-73
2022/12/20 00:07:24;;;;;;;10.70;7.53;;;1.70;99.90;;;;;;6240644;23;20410;-74
2022/12/20 00:09:51;;;;;;;13.13;7.60;;;1.60;99.90;;;;;;6249429;22;20453;-73
2022/12/20 00:12:18;;;;;;;12.03;8.23;;;1.60;99.90;;;;;;6251194;23;20465;-73
2022/12/20 00:14:45;;;;;;;11.17;8.07;;;1.60;99.90;;;;;;6256747;23;20405;-73
2022/12/20 00:17:13;;;;;;;8.83;7.57;;;1.60;99.90;;;;;;6252932;23;20430;-73
2022/12/20 00:19:40;;;;;;;10.73;7.90;;;1.50;99.90;;;;;;6243041;23;20397;-73
2022/12/20 00:22:07;;;;;;;9.93;7.83;;;1.50;99.90;;;;;;6241922;23;20433;-73
2022/12/20 00:24:34;;;;;;;13.60;9.03;;;1.50;99.90;;;;;;6240463;23;20904;-73
2022/12/20 00:27:00;;;;;;;10.43;7.43;;;1.40;99.90;;;;;;6230257;23;20857;-74
2022/12/20 00:29:27;;;;;;;9.70;7.50;;;1.50;99.90;;;;;;6181418;23;20847;-72
2022/12/20 00:31:54;;;;;;;12.97;8.63;;;1.50;99.90;;;;;;6180640;23;20462;-73
2022/12/20 00:34:22;;;;;;;11.63;8.60;;;1.40;99.90;;;;;;6180731;23;20491;-73
2022/12/20 00:36:49;;;;;;;13.63;8.67;;;1.40;99.90;;;;;;6183941;23;20507;-73
2022/12/20 00:39:16;;;;;;;11.87;8.07;;;1.40;99.90;;;;;;6184520;23;20431;-73
2022/12/20 00:41:43;;;;;;;10.50;8.27;;;1.40;99.90;;;;;;6184497;23;20475;-75
2022/12/20 00:44:10;;;;;;;11.47;8.03;;;1.40;99.90;;;;;;6185151;23;20411;-73
2022/12/20 00:46:37;;;;;;;8.13;6.27;;;1.40;99.90;;;;;;6214370;23;20413;-73
2022/12/20 00:49:03;;;;;;;9.60;6.67;;;1.40;99.90;;;;;;6212146;23;20469;-73
2022/12/20 00:51:32;;;;;;;11.77;8.20;;;1.40;99.90;;;;;;6211156;23;20858;-74
2022/12/20 00:53:59;;;;;;;12.77;8.60;;;1.40;99.90;;;;;;6211140;23;20748;-72
2022/12/20 00:56:26;;;;;;;15.20;8.23;;;1.40;99.90;;;;;;6211112;23;20410;-73
2022/12/20 00:58:53;;;;;;;11.10;6.70;;;1.40;99.90;;;;;;6211584;23;20921;-73
2022/12/20 01:01:23;;;;;;;12.50;7.10;;;1.40;99.90;;;;;;6211568;23;20414;-73
2022/12/20 01:03:50;;;;;;;8.40;6.33;;;1.40;99.90;;;;;;6211509;23;20497;-74
2022/12/20 01:06:18;;;;;;;14.63;9.33;;;1.40;99.90;;;;;;6211437;23;20422;-73
2022/12/20 01:08:46;;;;;;;14.13;7.30;;;1.40;99.90;;;;;;6211446;23;20494;-73
2022/12/20 01:11:16;;;;;;;8.83;7.10;;;1.40;99.90;;;;;;6211560;23;20671;-74
2022/12/20 01:13:45;;;;;;;14.00;7.13;;;1.40;99.90;;;;;;6210790;23;20413;-73
2022/12/20 01:16:15;;;;;;;12.23;7.33;;;1.40;99.90;;;;;;6211463;23;20499;-73
2022/12/20 01:18:42;;;;;;;7.90;5.80;;;1.50;99.90;;;;;;6212606;23;20403;-74
2022/12/20 01:21:11;;;;;;;9.30;6.23;;;1.50;99.90;;;;;;6212726;23;20441;-74
2022/12/20 01:23:38;;;;;;;12.30;7.43;;;1.50;99.90;;;;;;6211313;23;20431;-73
2022/12/20 01:26:09;;;;;;;11.30;6.63;;;1.40;99.90;;;;;;6211504;23;20407;-73
2022/12/20 01:28:37;;;;;;;9.80;7.30;;;1.50;99.90;;;;;;6210686;23;20444;-73
2022/12/20 01:31:07;;;;;;;8.20;6.20;;;1.40;99.90;;;;;;6210405;23;20983;-73
2022/12/20 01:33:34;;;;;;;10.40;6.80;;;1.50;99.90;;;;;;6211356;23;20407;-74
2022/12/20 01:36:03;;;;;;;10.13;5.37;;;1.50;99.90;;;;;;6211283;23;20486;-73
2022/12/20 01:38:30;;;;;;;9.17;5.70;;;1.50;99.90;;;;;;6210921;23;20513;-74
2022/12/20 01:40:57;;;;;;;9.07;6.07;;;1.50;99.90;;;;;;6210694;23;20502;-73
2022/12/20 01:43:44;;;;;;;7.20;6.10;;;1.50;99.90;;;;;;6210912;23;20494;-73
2022/12/20 01:46:11;;;;;;;9.73;4.67;;;1.60;99.90;;;;;;6211107;23;20408;-75
2022/12/20 01:48:38;;;;;;;4.47;4.03;;;1.60;99.90;;;;;;6217116;23;20470;-74
2022/12/20 01:51:05;;;;;;;7.00;4.40;;;1.90;99.90;;;;;;6214510;23;20859;-73
2022/12/20 01:53:32;;;;;;;13.43;4.80;;;2.10;99.90;;;;;;6214017;23;20421;-77
2022/12/20 01:56:03;;;;;;;6.47;4.10;;;2.10;99.90;;;;;;6211657;23;20442;-73
2022/12/20 01:58:31;;;;;;;7.30;4.37;;;2.10;99.90;;;;;;6211379;23;20388;-73
2022/12/20 02:00:58;;;;;;;8.37;5.63;;;2.20;99.90;;;;;;6211149;23;20406;-73
2022/12/20 02:03:25;;;;;;;5.90;4.27;;;2.10;99.90;;;;;;6212274;23;20442;-73
2022/12/20 02:05:52;;;;;;;8.13;4.93;;;2.10;99.90;;;;;;6211781;23;20406;-73
2022/12/20 02:08:20;;;;;;;6.33;5.10;;;2.20;99.90;;;;;;6212782;23;20493;-73
2022/12/20 02:11:03;;;;;;;5.63;4.33;;;2.20;99.90;;;;;;6221741;23;20436;-74
2022/12/20 02:13:44;;;;;;;5.77;4.20;;;2.10;99.90;;;;;;6217405;23;20447;-74
2022/12/20 02:16:13;;;;;;;5.17;4.20;;;2.10;99.90;;;;;;6213218;23;20771;-73
2022/12/20 02:18:49;;;;;;;5.13;3.47;;;2.10;99.90;;;;;;6231200;23;20442;-76
2022/12/20 02:21:27;;;;;;;4.53;3.40;;;2.00;99.90;;;;;;6210853;23;20467;-74
2022/12/20 02:24:27;;;;;;;5.93;3.70;;;2.00;99.90;;;;;;6210070;23;20910;-74
2022/12/20 02:27:36;;;;;;;5.03;3.60;;;1.90;99.90;;;;;;6210367;23;20435;-74
2022/12/20 02:30:13;;;;;;;6.10;3.80;;;1.80;99.90;;;;;;6210252;23;20796;-74
2022/12/20 02:32:47;;;;;;;7.40;3.77;;;1.80;99.90;;;;;;6210508;23;20525;-74
2022/12/20 02:35:19;;;;;;;5.50;3.23;;;1.80;99.90;;;;;;6210787;23;20478;-73
2022/12/20 02:37:51;;;;;;;3.17;2.87;;;1.80;99.90;;;;;;6210262;23;20430;-73
2022/12/20 02:40:21;;;;;;;7.90;4.87;;;1.80;99.90;;;;;;6209549;23;20750;-74
2022/12/20 02:42:51;;;;;;;3.00;2.53;;;1.90;99.90;;;;;;6210404;23;20475;-74
2022/12/20 02:45:22;;;;;;;5.80;3.57;;;1.80;99.90;;;;;;6209996;23;20811;-73
2022/12/20 02:47:53;;;;;;;4.67;3.53;;;1.80;99.90;;;;;;6210143;23;20711;-74
2022/12/20 02:50:23;;;;;;;4.03;3.63;;;1.80;99.90;;;;;;6210135;23;20388;-74
2022/12/20 02:52:51;;;;;;;4.27;3.50;;;1.80;99.90;;;;;;6210334;23;20451;-74
2022/12/20 02:55:20;;;;;;;5.40;3.90;;;1.80;99.90;;;;;;6209751;23;20417;-73
2022/12/20 02:57:52;;;;;;;3.50;3.13;;;1.90;99.90;;;;;;6209685;23;20783;-73
2022/12/20 03:00:22;;;;;;;4.40;3.30;;;2.00;99.90;;;;;;6210176;23;20426;-74
2022/12/20 03:05:43;;;;;;;3.60;3.27;;;2.00;99.90;;;;;;6210144;23;20378;-73
2022/12/20 03:08:10;;;;;;;4.87;3.30;;;1.90;99.90;;;;;;6210114;23;20959;-74
2022/12/20 03:10:37;;;;;;;5.20;3.57;;;1.90;99.90;;;;;;6210085;23;20427;-74
2022/12/20 03:13:04;;;;;;;4.00;3.03;;;1.90;99.90;;;;;;6209857;23;20447;-74
2022/12/20 03:15:32;;;;;;;3.90;3.60;;;1.90;99.90;;;;;;6210568;23;20498;-74
2022/12/20 03:17:59;;;;;;;5.77;2.90;;;2.10;99.90;;;;;;6217995;23;20438;-73
2022/12/20 03:20:26;;;;;;;3.90;3.30;;;2.10;99.90;;;;;;6210176;23;20435;-73
2022/12/20 03:22:52;;;;;;;4.73;3.00;;;2.10;99.90;;;;;;6209806;23;20905;-73
2022/12/20 03:25:20;;;;;;;3.63;3.17;;;2.10;99.90;;;;;;6210342;23;20506;-74
2022/12/20 03:27:46;;;;;;;5.50;3.17;;;2.20;99.90;;;;;;6209800;23;20606;-74
2022/12/20 03:30:14;;;;;;;4.33;2.63;;;2.30;99.90;;;;;;6209439;23;20752;-73
2022/12/20 03:32:42;;;;;;;2.80;2.60;;;2.40;99.90;;;;;;6210194;23;20443;-74
2022/12/20 03:35:10;;;;;;;4.80;2.80;;;2.40;99.90;;;;;;6210030;23;20411;-74
2022/12/20 03:37:36;;;;;;;3.60;2.73;;;2.30;99.90;;;;;;6210064;23;20413;-74
2022/12/20 03:40:04;;;;;;;3.23;2.90;;;2.30;99.90;;;;;;6210263;23;20413;-74
2022/12/20 03:42:31;;;;;;;6.83;2.90;;;2.30;99.90;;;;;;6209437;23;20441;-73
2022/12/20 03:44:58;;;;;;;3.83;2.90;;;2.30;99.90;;;;;;6210022;23;20431;-73
2022/12/20 03:47:25;;;;;;;3.93;2.93;;;2.20;99.90;;;;;;6209637;23;20493;-74
2022/12/20 03:49:53;;;;;;;5.20;3.13;;;2.20;99.90;;;;;;6208990;23;20469;-74
2022/12/20 03:52:20;;;;;;;4.17;2.77;;;2.30;99.90;;;;;;6209782;23;21034;-74
2022/12/20 03:54:47;;;;;;;5.00;3.33;;;2.30;99.90;;;;;;6210292;23;20508;-74
2022/12/20 03:57:14;;;;;;;3.23;2.60;;;2.40;99.90;;;;;;6210333;23;20411;-74
2022/12/20 03:59:42;;;;;;;4.03;3.17;;;2.40;99.90;;;;;;6210468;23;20413;-74
2022/12/20 04:02:09;;;;;;;3.00;2.43;;;2.50;99.90;;;;;;6210446;23;20408;-75
2022/12/20 04:04:35;;;;;;;3.40;2.57;;;2.40;99.90;;;;;;6209493;23;20399;-74
2022/12/20 04:07:04;;;;;;;3.50;2.83;;;2.30;99.90;;;;;;6209757;23;20501;-74
2022/12/20 04:09:31;;;;;;;3.37;3.10;;;2.30;99.90;;;;;;6210085;23;20840;-75
2022/12/20 04:11:57;;;;;;;3.50;2.30;;;2.20;99.90;;;;;;6212135;23;20443;-74
2022/12/20 04:14:24;;;;;;;3.13;2.83;;;2.20;99.90;;;;;;6212151;23;20502;-73
2022/12/20 04:16:51;;;;;;;4.10;2.70;;;2.20;99.90;;;;;;6212221;23;20415;-73
2022/12/20 04:19:18;;;;;;;3.70;2.30;;;2.20;99.90;;;;;;6211709;23;20410;-74
2022/12/20 04:21:45;;;;;;;3.33;2.73;;;2.20;99.90;;;;;;6211532;23;20495;-75
2022/12/20 04:24:13;;;;;;;3.50;2.57;;;2.20;99.90;;;;;;6212108;23;20517;-74
2022/12/20 04:26:40;;;;;;;4.20;2.70;;;2.30;99.90;;;;;;6211536;23;20419;-74
2022/12/20 04:29:07;;;;;;;2.43;2.10;;;2.20;99.90;;;;;;6212030;23;20405;-74
2022/12/20 04:31:35;;;;;;;6.13;3.00;;;2.30;99.90;;;;;;6212044;23;20498;-72
2022/12/20 04:34:02;;;;;;;3.47;2.60;;;2.40;99.90;;;;;;6211394;23;20418;-72
2022/12/20 04:36:28;;;;;;;3.43;3.10;;;2.60;99.90;;;;;;6212125;23;20403;-74
2022/12/20 04:38:55;;;;;;;4.23;2.57;;;2.70;99.90;;;;;;6211561;23;20464;-72
2022/12/20 04:41:25;;;;;;;3.40;2.50;;;2.60;99.90;;;;;;6211958;23;20494;-72
2022/12/20 04:43:54;;;;;;;3.53;2.90;;;2.50;99.90;;;;;;6212707;23;20401;-72
2022/12/20 04:46:22;;;;;;;3.53;2.80;;;2.50;99.90;;;;;;6214629;23;20407;-72
2022/12/20 04:48:49;;;;;;;4.70;2.70;;;2.70;99.90;;;;;;6211708;23;21012;-72
2022/12/20 04:51:17;;;;;;;3.80;3.47;;;2.60;99.90;;;;;;6211492;23;20447;-72
2022/12/20 04:53:46;;;;;;;4.27;2.70;;;2.60;99.90;;;;;;6211316;23;20522;-72
2022/12/20 04:56:14;;;;;;;3.50;3.20;;;2.50;99.90;;;;;;6211026;23;20415;-72
2022/12/20 04:58:42;;;;;;;4.83;3.53;;;2.50;99.90;;;;;;6210892;23;21176;-72
2022/12/20 05:01:10;;;;;;;5.00;3.13;;;2.40;99.90;;;;;;6211020;23;20498;-73
2022/12/20 05:03:38;;;;;;;4.33;3.10;;;2.30;99.90;;;;;;6211256;23;20482;-72
2022/12/20 05:06:06;;;;;;;4.90;3.90;;;2.40;99.90;;;;;;6211801;23;20405;-73
2022/12/20 05:08:33;;;;;;;5.23;3.50;;;2.40;99.90;;;;;;6210863;23;20498;-72
2022/12/20 05:10:59;;;;;;;6.27;3.40;;;2.40;99.90;;;;;;6211062;23;20427;-73
2022/12/20 05:13:26;;;;;;;6.10;3.20;;;2.40;99.90;;;;;;6210825;23;20452;-73
2022/12/20 05:15:56;;;;;;;5.73;3.37;;;2.40;99.90;;;;;;6210996;23;20411;-73
2022/12/20 05:18:23;;;;;;;12.00;4.23;;;2.40;99.90;;;;;;6211292;23;20495;-73
2022/12/20 05:26:16;;;;;;;3.80;3.30;;;2.40;99.90;;;;;;6211314;23;20490;-72
2022/12/20 05:26:25;;;;;;;2.90;2.50;;;2.30;99.90;;;;;;6210717;23;20394;-79
2022/12/20 05:28:52;;;;;;;4.93;3.20;;;2.30;99.90;;;;;;6211100;23;20475;-77
2022/12/20 05:31:38;;;;;;;7.47;3.17;;;2.30;99.90;;;;;;6211053;23;20490;-75
2022/12/20 05:34:05;;;;;;;4.53;2.97;;;2.20;99.90;;;;;;6211100;23;21117;-77
2022/12/20 05:36:32;;;;;;;6.70;3.10;;;2.50;99.90;;;;;;6210895;23;20419;-73
2022/12/20 05:38:59;;;;;;;4.03;3.63;;;2.30;99.90;;;;;;6210991;23;20486;-73
2022/12/20 05:41:25;;;;;;;3.77;3.33;;;2.50;99.90;;;;;;6211108;23;20589;-73
2022/12/20 05:43:52;;;;;;;6.90;3.30;;;2.70;99.90;;;;;;6211411;23;20399;-74
2022/12/20 05:46:19;;;;;;;6.50;2.73;;;2.70;99.90;;;;;;6210177;23;20446;-74
2022/12/20 05:49:30;;;;;;;4.63;2.50;;;2.50;99.90;;;;;;6210584;23;20488;-85
2022/12/20 05:51:58;;;;;;;4.93;3.30;;;2.30;99.90;;;;;;6210412;23;20482;-87
2022/12/20 05:54:25;;;;;;;4.87;2.97;;;2.20;99.90;;;;;;6208607;23;20520;-73
2022/12/20 05:56:52;;;;;;;6.30;3.30;;;2.20;99.90;;;;;;6210887;23;20487;-75
2022/12/20 05:59:19;;;;;;;5.20;3.77;;;2.20;99.90;;;;;;6210810;23;20407;-84
2022/12/20 06:01:46;;;;;;;5.20;3.20;;;2.30;99.90;;;;;;6211037;23;20485;-84
2022/12/20 06:04:12;;;;;;;7.33;2.83;;;2.20;99.90;;;;;;6211452;23;20400;-85
2022/12/20 06:06:39;;;;;;;4.83;3.67;;;2.10;99.90;;;;;;6212024;23;20435;-78
2022/12/20 06:09:10;;;;;;;4.43;2.70;;;2.00;99.90;;;;;;6210897;23;20477;-75
2022/12/20 06:11:37;;;;;;;3.87;3.07;;;2.00;99.90;;;;;;6210168;23;20435;-73
2022/12/20 06:14:04;;;;;;;6.10;3.83;;;2.00;99.90;;;;;;6210492;23;20514;-73
2022/12/20 06:16:31;;;;;;;6.17;3.47;;;2.00;99.90;;;;;;6209823;23;20415;-73
2022/12/20 06:18:59;;;;;;;6.27;3.20;;;2.10;99.90;;;;;;6209517;23;20411;-73
2022/12/20 06:21:27;;;;;;;3.90;3.13;;;2.20;99.90;;;;;;6209474;23;20457;-72
2022/12/20 06:23:55;;;;;;;4.17;2.50;;;2.10;99.90;;;;;;6212060;23;20465;-74
2022/12/20 06:26:35;;;;;;;3.30;2.50;;;2.30;99.90;;;;;;6210060;23;20450;-74
2022/12/20 06:29:39;;;;;;;5.50;3.70;;;2.30;99.90;;;;;;6210351;23;20435;-83
2022/12/20 06:32:06;;;;;;;6.40;4.60;;;2.30;99.90;;;;;;6208739;23;20410;-86
2022/12/20 06:34:41;;;;;;;5.30;3.50;;;2.30;99.90;;;;;;6210756;23;20451;-84
2022/12/20 06:37:08;;;;;;;11.13;5.00;;;2.40;99.90;;;;;;6209344;23;20410;-77
2022/12/20 06:39:35;;;;;;;4.80;3.43;;;2.40;99.90;;;;;;6208774;23;20391;-77
2022/12/20 06:42:04;;;;;;;3.87;3.10;;;2.40;99.90;;;;;;6207508;23;20486;-73
2022/12/20 06:44:31;;;;;;;4.70;3.97;;;2.40;99.90;;;;;;6207422;23;20402;-73
2022/12/20 06:46:58;;;;;;;8.00;4.60;;;2.50;99.90;;;;;;6207921;23;20787;-73
2022/12/20 06:49:25;;;;;;;6.20;3.73;;;2.70;99.90;;;;;;6208429;23;20450;-73
2022/12/20 06:51:52;;;;;;;8.37;4.20;;;2.70;99.90;;;;;;6208173;23;20608;-73
2022/12/20 06:54:19;;;;;;;9.07;4.43;;;2.60;99.90;;;;;;6207549;23;20508;-74
2022/12/20 06:56:46;;;;;;;8.47;5.80;;;2.60;99.90;;;;;;6208179;23;20487;-72
2022/12/20 06:59:14;;;;;;;4.77;4.27;;;2.60;99.90;;;;;;6209693;23;20499;-73
2022/12/20 07:01:41;;;;;;;5.23;3.90;;;2.70;99.90;;;;;;6209563;23;20465;-74
2022/12/20 07:04:08;;;;;;;7.50;5.43;;;2.70;99.90;;;;;;6206562;23;20399;-72
2022/12/20 07:06:34;;;;;;;5.40;4.07;;;2.70;99.90;;;;;;6203755;23;20936;-72
2022/12/20 07:09:01;;;;;;;7.53;5.00;;;2.70;99.90;;;;;;6206128;23;20493;-73
2022/12/20 07:11:28;;;;;;;7.97;5.00;;;2.70;99.90;;;;;;6212173;23;20411;-73
2022/12/20 07:13:56;;;;;;;7.63;4.70;;;2.60;99.90;;;;;;6208168;23;20963;-73
2022/12/20 07:16:24;;;;;;;8.27;4.90;;;2.60;99.90;;;;;;6207733;23;20411;-74
2022/12/20 07:18:52;;;;;;;5.43;4.23;;;2.60;99.90;;;;;;6207130;23;20418;-73
2022/12/20 07:21:20;;;;;;;5.57;4.03;;;2.50;99.90;;;;;;6210399;23;20411;-72
2022/12/20 07:23:46;;;;;;;7.10;5.00;;;2.60;99.90;;;;;;6211545;23;20490;-74
2022/12/20 07:26:15;;;;;;;5.70;3.83;;;2.70;99.90;;;;;;6205123;23;20701;-73
2022/12/20 07:28:42;;;;;;;5.93;4.13;;;2.80;99.90;;;;;;6208021;23;20439;-72
2022/12/20 07:31:09;;;;;;;5.60;3.83;;;2.80;99.90;;;;;;6205445;23;20495;-72
2022/12/20 07:33:37;;;;;;;3.10;2.90;;;2.90;99.90;;;;;;6204254;23;21066;-73
2022/12/20 07:36:06;;;;;;;7.17;3.47;;;2.90;99.90;;;;;;6204382;23;20806;-72
2022/12/20 07:38:34;;;;;;;8.90;3.70;;;3.00;99.90;;;;;;6204651;23;20441;-73
2022/12/20 07:41:01;;;;;;;6.30;3.83;;;2.90;99.90;;;;;;6204761;23;20551;-72
2022/12/20 07:43:28;;;;;;;5.13;4.37;;;3.00;99.90;;;;;;6207425;23;20396;-74
2022/12/20 07:45:56;;;;;;;4.20;3.10;;;3.10;99.90;;;;;;6210967;23;20407;-73
2022/12/20 07:48:23;;;;;;;5.70;3.37;;;3.20;99.90;;;;;;6210695;23;20951;-73
2022/12/20 07:50:52;;;;;;;4.10;3.30;;;3.20;99.90;;;;;;6211304;23;20590;-73
2022/12/20 07:53:20;;;;;;;7.47;5.03;;;3.30;99.90;;;;;;6211007;23;20469;-73
2022/12/20 07:55:48;;;;;;;5.83;3.30;;;3.40;99.90;;;;;;6209952;23;20417;-72
2022/12/20 07:58:17;;;;;;;9.03;3.63;;;3.40;99.90;;;;;;6210228;23;20498;-72
2022/12/20 08:00:45;;;;;;;7.53;3.47;;;3.50;99.90;;;;;;6210281;23;20421;-73
2022/12/20 08:03:14;;;;;;;3.60;3.30;;;3.60;99.90;;;;;;6210859;23;20431;-73
2022/12/20 08:05:46;;;;;;;5.00;3.40;;;3.80;99.90;;;;;;6209663;23;21027;-72
2022/12/20 08:08:15;;;;;;;3.70;2.43;;;3.80;99.90;;;;;;6210098;23;20431;-73
2022/12/20 08:10:43;;;;;;;3.73;2.50;;;3.90;99.90;;;;;;6210123;23;20498;-73
2022/12/20 08:13:10;;;;;;;3.43;3.10;;;4.10;99.90;;;;;;6212051;23;20790;-73
2022/12/20 08:15:37;;;;;;;2.90;2.30;;;4.10;99.90;;;;;;6211103;23;20498;-73
2022/12/20 08:18:05;;;;;;;4.50;3.27;;;4.10;99.90;;;;;;6210731;23;20498;-74
2022/12/20 08:20:32;;;;;;;4.73;3.47;;;4.10;99.90;;;;;;6209331;23;20446;-74
2022/12/20 08:22:59;;;;;;;7.23;3.23;;;4.10;99.90;;;;;;6210408;23;20411;-74
2022/12/20 08:25:27;;;;;;;4.20;3.07;;;4.00;99.90;;;;;;6210457;23;20722;-73
2022/12/20 08:27:54;;;;;;;3.20;2.90;;;4.00;99.90;;;;;;6209238;23;20749;-74
2022/12/20 08:30:21;;;;;;;4.73;3.47;;;4.00;99.90;;;;;;6210483;23;20498;-74
2022/12/20 08:32:48;;;;;;;5.30;4.70;;;4.10;99.90;;;;;;6210208;23;20414;-72
2022/12/20 08:35:15;;;;;;;5.73;4.40;;;4.10;99.90;;;;;;6210017;23;20407;-73
2022/12/20 08:37:41;;;;;;;6.30;4.10;;;4.00;99.90;;;;;;6210392;23;20489;-74
2022/12/20 08:40:09;;;;;;;9.47;4.70;;;4.10;99.90;;;;;;6210365;23;20429;-74
2022/12/20 08:42:38;;;;;;;5.40;4.43;;;4.20;99.90;;;;;;6210002;23;20482;-74
2022/12/20 08:45:06;;;;;;;6.67;4.83;;;4.20;99.90;;;;;;6210525;23;20470;-73
2022/12/20 08:47:32;;;;;;;8.27;4.47;;;4.30;99.90;;;;;;6209798;23;20407;-73
2022/12/20 08:49:59;;;;;;;7.93;4.90;;;4.40;99.90;;;;;;6210390;23;20407;-73
2022/12/20 08:52:28;;;;;;;8.60;4.50;;;4.40;99.90;;;;;;6209643;23;20450;-74
2022/12/20 08:54:55;;;;;;;7.10;3.70;;;4.40;99.90;;;;;;6209474;23;20505;-73
2022/12/20 08:57:22;;;;;;;6.73;3.67;;;4.50;99.90;;;;;;6209780;23;20498;-73
2022/12/20 08:59:50;;;;;;;6.43;4.13;;;4.50;99.90;;;;;;6209668;23;20490;-73
2022/12/20 09:02:17;;;;;;;5.57;4.13;;;4.50;99.90;;;;;;6210156;23;20412;-74
2022/12/20 09:04:44;;;;;;;8.03;3.83;;;4.50;99.90;;;;;;6209699;23;20494;-74
2022/12/20 09:07:11;;;;;;;6.50;4.10;;;4.50;99.90;;;;;;6209347;23;20664;-73
2022/12/20 09:09:38;;;;;;;5.07;4.07;;;4.60;99.90;;;;;;6210430;23;20458;-73
2022/12/20 09:12:06;;;;;;;9.40;4.13;;;4.70;99.90;;;;;;6209789;23;20411;-73
2022/12/20 09:14:33;;;;;;;5.77;4.03;;;4.80;99.90;;;;;;6209600;23;20443;-73
2022/12/20 09:17:01;;;;;;;11.67;5.60;;;4.90;99.90;;;;;;6210309;23;20502;-73
2022/12/20 09:19:29;;;;;;;19.70;3.97;;;4.90;99.90;;;;;;6209399;23;20528;-73
2022/12/20 09:21:56;;;;;;;5.77;3.70;;;5.00;99.90;;;;;;6209409;23;20923;-73
2022/12/20 09:24:23;;;;;;;6.80;4.50;;;5.10;99.90;;;;;;6209519;23;20404;-73
2022/12/20 09:26:50;;;;;;;6.63;4.07;;;5.20;99.90;;;;;;6209906;23;20494;-73
2022/12/20 09:29:16;;;;;;;6.50;3.73;;;5.30;99.90;;;;;;6209561;23;20435;-74
2022/12/20 09:31:43;;;;;;;3.43;3.13;;;5.20;99.90;;;;;;6209938;23;20490;-73
2022/12/20 09:34:11;;;;;;;6.63;4.13;;;5.20;99.90;;;;;;6209463;23;20457;-74
2022/12/20 09:36:38;;;;;;;6.67;4.20;;;5.30;99.90;;;;;;6209952;23;20490;-75
2022/12/20 09:39:05;;;;;;;5.40;3.60;;;5.30;99.90;;;;;;6209501;23;20434;-72
2022/12/20 09:41:36;;;;;;;6.83;4.10;;;5.40;99.90;;;;;;6209501;23;20404;-74
2022/12/20 09:44:12;;;;;;;6.10;4.33;;;5.60;99.90;;;;;;6209831;23;20522;-74
2022/12/20 09:46:40;;;;;;;5.10;3.50;;;5.30;99.90;;;;;;6209891;23;20431;-72
2022/12/20 09:49:08;;;;;;;6.10;4.33;;;5.40;99.90;;;;;;6210096;23;20793;-72
2022/12/20 09:51:53;;;;;;;4.30;3.80;;;5.60;99.90;;;;;;6209667;23;20398;-72
2022/12/20 09:54:33;;;;;;;8.80;4.53;;;5.70;99.90;;;;;;6209219;23;20919;-74
2022/12/20 09:57:06;;;;;;;5.50;4.10;;;5.80;99.90;;;;;;6209748;23;20399;-74
2022/12/20 09:59:35;;;;;;;5.90;4.20;;;5.80;99.90;;;;;;6209349;23;20415;-73
2022/12/20 10:02:02;;;;;;;5.70;4.73;;;5.90;99.90;;;;;;6209243;23;20485;-73
2022/12/20 10:04:32;;;;;;;5.63;4.40;;;6.00;99.90;;;;;;6209073;23;20597;-73
2022/12/20 10:07:17;;;;;;;5.23;3.67;;;5.90;99.90;;;;;;6209507;23;20449;-73
2022/12/20 10:10:01;;;;;;;5.33;4.10;;;6.00;99.90;;;;;;6208968;23;20419;-73
2022/12/20 10:12:37;;;;;;;6.27;4.17;;;6.30;99.90;;;;;;6209084;23;20952;-73
2022/12/20 10:15:16;;;;;;;3.57;3.30;;;6.40;99.90;;;;;;6209574;23;20447;-73
2022/12/20 10:17:54;;;;;;;9.30;4.33;;;6.60;99.90;;;;;;6209845;23;20397;-73
2022/12/20 10:20:37;;;;;;;6.10;4.10;;;6.70;99.90;;;;;;6209308;23;20419;-73
2022/12/20 10:23:14;;;;;;;7.00;4.47;;;6.80;99.90;;;;;;6210037;23;20478;-71
2022/12/20 10:25:42;;;;;;;6.77;3.47;;;6.80;99.90;;;;;;6214409;23;20441;-71
2022/12/20 10:28:14;;;;;;;5.57;3.63;;;6.90;99.90;;;;;;6215385;23;20707;-71
2022/12/20 10:30:40;;;;;;;8.10;4.03;;;6.70;99.90;;;;;;6209363;23;20407;-72
2022/12/20 10:33:18;;;;;;;7.50;4.27;;;6.40;99.90;;;;;;6211240;23;20403;-72
2022/12/20 10:35:45;;;;;;;4.53;3.63;;;6.20;99.90;;;;;;6209449;23;20391;-73
2022/12/20 10:38:16;;;;;;;5.97;3.97;;;6.20;99.90;;;;;;6208944;23;20490;-73
2022/12/20 10:40:46;;;;;;;7.30;3.90;;;6.50;99.90;;;;;;6209090;23;20418;-73
2022/12/20 10:43:19;;;;;;;6.57;4.30;;;6.70;99.90;;;;;;6208941;23;20940;-73
2022/12/20 10:45:57;;;;;;;7.50;4.47;;;6.90;99.90;;;;;;6209049;23;20414;-73
2022/12/20 10:48:29;;;;;;;7.47;4.17;;;7.00;99.90;;;;;;6209203;23;20925;-72
2022/12/20 10:50:58;;;;;;;8.63;4.57;;;7.10;99.90;;;;;;6208653;23;20415;-72
2022/12/20 10:53:27;;;;;;;6.60;4.77;;;7.10;99.90;;;;;;6208958;23;20492;-72
2022/12/20 10:56:09;;;;;;;8.17;5.07;;;7.10;99.90;;;;;;6208736;23;20418;-73
2022/12/20 10:58:37;;;;;;;6.33;4.50;;;7.30;99.90;;;;;;6208760;23;20478;-72
2022/12/20 11:01:11;;;;;;;6.50;5.00;;;7.30;99.90;;;;;;6208494;23;20955;-73
2022/12/20 11:03:50;;;;;;;6.77;5.13;;;7.40;99.90;;;;;;6209366;23;20395;-73
2022/12/20 11:06:19;;;;;;;6.97;4.83;;;7.40;99.90;;;;;;6208768;23;20479;-72
2022/12/20 11:08:48;;;;;;;9.50;5.27;;;7.50;99.90;;;;;;6208630;23;20411;-73
2022/12/20 11:11:17;;;;;;;8.20;5.50;;;7.60;99.90;;;;;;6208233;23;20411;-74
2022/12/20 11:13:45;;;;;;;6.07;4.37;;;7.60;99.90;;;;;;6208932;23;20526;-72
2022/12/20 11:16:33;;;;;;;7.40;4.47;;;7.70;99.90;;;;;;6208271;23;20469;-72
2022/12/20 11:19:29;;;;;;;7.63;4.50;;;7.70;99.90;;;;;;6208740;23;20387;-72
2022/12/20 11:22:04;;;;;;;5.40;4.50;;;7.80;99.90;;;;;;6209171;23;20372;-74
2022/12/20 11:24:39;;;;;;;5.93;4.53;;;8.00;99.90;;;;;;6206899;23;20410;-74
2022/12/20 11:27:24;;;;;;;7.27;5.17;;;7.90;99.90;;;;;;6208116;23;20391;-72
2022/12/20 11:30:09;;;;;;;8.70;5.50;;;8.00;99.90;;;;;;6208609;23;20484;-73
2022/12/20 11:33:01;;;;;;;8.30;4.60;;;8.20;99.90;;;;;;6207867;23;20736;-73
2022/12/20 11:35:39;;;;;;;7.37;4.90;;;8.30;99.90;;;;;;6208035;23;20431;-73
2022/12/20 11:38:15;;;;;;;8.80;5.33;;;8.70;99.90;;;;;;6208681;23;20491;-73
2022/12/20 11:40:49;;;;;;;6.23;4.10;;;8.90;99.90;;;;;;6209129;23;20391;-73
2022/12/20 11:43:34;;;;;;;4.80;4.20;;;9.10;99.90;;;;;;6208705;23;20389;-73
2022/12/20 11:46:20;;;;;;;5.20;4.67;;;9.20;99.90;;;;;;6209122;23;20392;-73
2022/12/20 11:49:06;;;;;;;6.40;4.90;;;9.30;99.90;;;;;;6208537;23;20739;-73
2022/12/20 11:51:43;;;;;;;5.10;4.40;;;9.40;99.90;;;;;;6208889;23;20503;-73
2022/12/20 11:54:15;;;;;;;11.03;5.10;;;9.40;99.90;;;;;;6210041;23;20431;-74
2022/12/20 11:56:45;;;;;;;8.80;5.30;;;9.40;99.90;;;;;;6209867;23;20472;-73
2022/12/20 11:59:18;;;;;;;8.23;5.93;;;9.40;99.90;;;;;;6209849;23;20402;-73
2022/12/20 12:01:51;;;;;;;7.03;6.33;;;9.40;99.90;;;;;;6219853;23;20391;-73
2022/12/20 12:04:22;;;;;;;8.03;5.77;;;9.30;99.90;;;;;;6208230;23;20399;-73
2022/12/20 12:06:56;;;;;;;6.30;5.10;;;9.20;99.90;;;;;;6208968;23;20396;-72
2022/12/20 12:09:28;;;;;;;5.97;5.40;;;9.10;99.90;;;;;;6209694;23;20422;-74
2022/12/20 12:12:01;;;;;;;6.63;5.57;;;9.00;99.90;;;;;;6209112;23;20391;-74
2022/12/20 12:14:35;;;;;;;8.03;5.80;;;8.90;99.90;;;;;;6208937;23;20949;-73
2022/12/20 12:17:09;;;;;;;11.93;5.97;;;8.80;99.90;;;;;;6213160;23;20459;-73
2022/12/20 12:19:40;;;;;;;9.20;5.00;;;8.60;99.90;;;;;;6219207;23;20865;-73
2022/12/20 12:22:11;;;;;;;10.00;5.63;;;8.50;99.90;;;;;;6215786;23;20387;-72
2022/12/20 12:24:43;;;;;;;8.47;4.87;;;8.50;99.90;;;;;;6209650;23;20387;-73
2022/12/20 12:27:23;;;;;;;5.70;5.10;;;8.60;99.90;;;;;;6208435;23;20919;-73
2022/12/20 12:29:51;;;;;;;6.60;5.67;;;8.70;99.90;;;;;;6208820;23;20450;-73
2022/12/20 12:32:24;;;;;;;9.07;5.70;;;8.70;99.90;;;;;;6209557;23;20753;-73
2022/12/20 12:35:05;;;;;;;6.93;5.30;;;8.50;99.90;;;;;;6210057;23;20482;-73
2022/12/20 12:37:54;;;;;;;12.87;6.57;;;8.50;99.90;;;;;;6209603;23;20399;-73
2022/12/20 12:40:52;;;;;;;10.50;6.87;;;8.60;99.90;;;;;;6211076;23;20712;-72
2022/12/20 12:43:47;;;;;;;14.10;5.90;;;8.30;99.90;;;;;;6210721;23;20388;-73
2022/12/20 12:46:18;;;;;;;8.53;6.50;;;8.50;99.90;;;;;;6209831;23;20957;-73
2022/12/20 12:48:50;;;;;;;9.67;6.63;;;8.50;99.90;;;;;;6210164;23;20407;-73
2022/12/20 12:51:24;;;;;;;7.73;6.73;;;8.40;99.90;;;;;;6210613;23;20398;-73
2022/12/20 12:53:52;;;;;;;8.50;6.30;;;8.40;99.90;;;;;;6209838;23;20395;-72
2022/12/20 12:56:47;;;;;;;17.57;11.13;;;8.50;99.90;;;;;;6209760;23;20449;-72
2022/12/20 12:59:50;;;;;;;11.17;9.17;;;8.60;99.90;;;;;;6139946;23;20419;-72
2022/12/20 13:02:36;;;;;;;9.93;6.90;;;8.20;99.90;;;;;;6210047;23;20415;-72
2022/12/20 13:05:31;;;;;;;11.33;8.03;;;7.90;99.90;;;;;;6211037;23;20398;-72
2022/12/20 13:07:59;;;;;;;8.30;6.57;;;7.90;99.90;;;;;;6211214;23;20475;-73
2022/12/20 13:11:05;;;;;;;10.63;6.00;;;7.90;99.90;;;;;;6209923;23;20442;-72
2022/12/20 13:13:33;;;;;;;9.70;6.70;;;7.90;99.90;;;;;;6210273;23;20766;-72
2022/12/20 13:16:12;;;;;;;8.73;5.50;;;7.90;99.90;;;;;;6210252;23;21040;-72
2022/12/20 13:18:57;;;;;;;8.97;5.40;;;7.90;99.90;;;;;;6209894;23;20391;-71